Sweden Valley, Pennsylvania
Current Conditions -  °F | °C
As of 4:56 AM on Saturday 29 Nov 2014 (Local Time) from KELZ Reporting Station
Overcast Overcast  
Wind Chill: 20°   Ceiling: 7500
Heat Index: 20°   Visibility: 10mi
Dew Point: 15°   Wind: 3mph
Humidity: 81%   Direction: 110°ESE
Pressure: 30.11"   Gusts: NA
Location:  41.7605°N, 77.9728°W
Report Text: KELZ 290956Z AUTO 11003KT 10SM OVC075 M07/M09 A3011 RMK AO2 SNE16 SLP232 P0000 T10671094
Loading
Personal Weather Stations






























Interactive Weather Map New forecast layout! Learn more

10-Day Weather Forecast

Advertisements
Track Severe Weather on mobile